English version
lugares datos climáticos artículos

datos de Mairena del Aljarafe, Sevilla, España
Año Mes Dia Mostrar

  Fecha       hora        Temp.ext.    Hum.ext.  Dir.Viento   Vel.Viento  Presion al NM   T.int. Prec.hoy 

   26-05-2019    22:05      25.6º(-1.5)     39%      270 (W)     11.3 km/h    1012.8 hpa     29.1º    0.0 mm
   26-05-2019    22:00      25.8º(-1.6)     39%      270 (W)     11.3 km/h    1012.6 hpa     29.2º    0.0 mm
   26-05-2019    21:55      26.1º(-1.7)     39%      270 (W)      9.7 km/h    1012.6 hpa     29.2º    0.0 mm
   26-05-2019    21:50      26.2º(-2.2)     38%      270 (W)      9.7 km/h    1012.6 hpa     29.2º    0.0 mm
   26-05-2019    21:45      26.4º(-2.9)     38%      270 (W)      9.7 km/h    1012.5 hpa     29.2º    0.0 mm
   26-05-2019    21:40      26.6º(-3.2)     37%      270 (W)      9.7 km/h    1012.6 hpa     29.2º    0.0 mm
   26-05-2019    21:35      26.8º(-3.0)     37%      270 (W)      9.7 km/h    1012.7 hpa     29.2º    0.0 mm
   26-05-2019    21:30      26.9º(-3.0)     37%      270 (W)      8.0 km/h    1012.6 hpa     29.2º    0.0 mm
   26-05-2019    21:25      27.0º(-3.0)     37%      270 (W)      8.0 km/h    1012.7 hpa     29.2º    0.0 mm
   26-05-2019    21:20      27.1º(-3.0)     36%      270 (W)     11.3 km/h    1012.6 hpa     29.2º    0.0 mm
   26-05-2019    21:15      27.3º(-2.9)     36%      270 (W)     12.9 km/h    1012.7 hpa     29.2º    0.0 mm
   26-05-2019    21:10      27.6º(-2.7)     36%      270 (W)     11.3 km/h    1012.6 hpa     29.2º    0.0 mm
   26-05-2019    21:05      27.7º(-2.6)     36%      270 (W)     11.3 km/h    1012.7 hpa     29.2º    0.0 mm
   26-05-2019    21:00      27.9º(-2.5)     35%      270 (W)     11.3 km/h    1012.6 hpa     29.2º    0.0 mm
   26-05-2019    20:55      28.2º(-2.4)     35%      270 (W)      8.0 km/h    1012.5 hpa     29.2º    0.0 mm
   26-05-2019    20:50      28.3º(-2.4)     35%      270 (W)      8.0 km/h    1012.5 hpa     29.2º    0.0 mm
   26-05-2019    20:45      28.4º(-2.5)     35%      270 (W)     11.3 km/h    1012.5 hpa     29.2º    0.0 mm
   26-05-2019    20:40      28.6º(-2.2)     34%      270 (W)     12.9 km/h    1012.4 hpa     29.2º    0.0 mm
   26-05-2019    20:35      28.7º(-2.1)     34%      270 (W)     16.1 km/h    1012.2 hpa     29.2º    0.0 mm
   26-05-2019    20:30      28.9º(-2.0)     34%      270 (W)     14.5 km/h    1012.2 hpa     29.2º    0.0 mm
   26-05-2019    20:25      29.1º(-1.8)     33%      270 (W)     12.9 km/h    1012.2 hpa     29.2º    0.0 mm
   26-05-2019    20:20      29.2º(-1.7)     33%      270 (W)     14.5 km/h    1012.2 hpa     29.2º    0.0 mm
   26-05-2019    20:15      29.4º(-1.5)     33%      270 (W)     14.5 km/h    1012.1 hpa     29.2º    0.0 mm
   26-05-2019    20:10      29.6º(-1.2)     33%      270 (W)     14.5 km/h    1012.2 hpa     29.2º    0.0 mm
   26-05-2019    20:05      29.8º(-1.0)     32%      270 (W)     14.5 km/h    1012.0 hpa     29.2º    0.0 mm
   26-05-2019    20:00      29.9º(-1.2)     33%      270 (W)     11.3 km/h    1012.1 hpa     29.2º    0.0 mm
   26-05-2019    19:55      29.8º(-1.0)     33%      270 (W)     17.7 km/h    1012.0 hpa     29.2º    0.0 mm
   26-05-2019    19:50      30.1º(-0.3)     33%      270 (W)     14.5 km/h    1012.0 hpa     29.2º    0.0 mm
   26-05-2019    19:45      30.0º(-0.4)     33%      270 (W)     14.5 km/h    1012.1 hpa     29.2º    0.0 mm
   26-05-2019    19:40      30.3º(-0.0)     32%      270 (W)     14.5 km/h    1012.0 hpa     29.2º    0.0 mm
   26-05-2019    19:35      30.5º(+0.2)     32%      270 (W)     11.3 km/h    1012.1 hpa     29.1º    0.0 mm
   26-05-2019    19:30      30.5º(+0.2)     33%      270 (W)      9.7 km/h    1012.1 hpa     29.1º    0.0 mm
   26-05-2019    19:25      30.7º(+0.4)     32%      270 (W)     11.3 km/h    1012.1 hpa     29.1º    0.0 mm
   26-05-2019    19:20      30.7º(+0.4)     32%      270 (W)     11.3 km/h    1012.1 hpa     29.1º    0.0 mm
   26-05-2019    19:15      30.7º(+0.3)     32%      270 (W)     12.9 km/h    1012.1 hpa     29.1º    0.0 mm
   26-05-2019    19:10      30.8º(+0.4)     32%      270 (W)     12.9 km/h    1012.1 hpa     29.1º    0.0 mm
   26-05-2019    19:05      30.9º(+0.2)     32%      270 (W)      9.7 km/h    1012.2 hpa     29.1º    0.0 mm
   26-05-2019    19:00      31.1º(+0.4)     32%      270 (W)      8.0 km/h    1012.3 hpa     29.1º    0.0 mm
   26-05-2019    18:55      31.2º(+0.6)     32%      270 (W)      9.7 km/h    1012.3 hpa     29.1º    0.0 mm
   26-05-2019    18:50      31.5º(+1.2)     31%      270 (W)     14.5 km/h    1012.3 hpa     29.1º    0.0 mm
   26-05-2019    18:45      32.2º(+2.0)     31%      270 (W)     11.3 km/h    1012.3 hpa     29.1º    0.0 mm
   26-05-2019    18:40      32.9º(+2.6)     28%      270 (W)      4.8 km/h    1012.2 hpa     29.1º    0.0 mm
   26-05-2019    18:35      32.8º(+2.3)     27%      202 (S)      1.6 km/h    1012.1 hpa     28.9º    0.0 mm
   26-05-2019    18:30      32.8º(+2.0)     26%      247(SW)      3.2 km/h    1012.2 hpa     28.9º    0.0 mm
   26-05-2019    18:25      32.9º(+2.5)     26%      247(SW)      3.2 km/h    1012.2 hpa     28.9º    0.0 mm
   26-05-2019    18:20      32.9º(+2.5)     27%      225(SW)      1.6 km/h    1012.2 hpa     28.9º    0.0 mm
   26-05-2019    18:15      32.8º(+2.1)     27%      225(SW)      1.6 km/h    1012.2 hpa     28.9º    0.0 mm
   26-05-2019    18:10      32.6º(+1.8)     28%         -         0.0 km/h    1012.2 hpa     28.9º    0.0 mm
   26-05-2019    18:05      32.2º(+1.5)     28%      225(SW)      3.2 km/h    1012.1 hpa     28.9º    0.0 mm
   26-05-2019    18:00      32.1º(+1.3)     28%      270 (W)      3.2 km/h    1012.1 hpa     28.8º    0.0 mm
   26-05-2019    17:55      32.2º(+1.4)     28%      202 (S)      4.8 km/h    1012.1 hpa     28.8º    0.0 mm
   26-05-2019    17:50      32.1º(+1.5)     29%      000 (N)      1.6 km/h    1012.2 hpa     28.8º    0.0 mm
   26-05-2019    17:45      31.7º(+1.3)     29%      270 (W)      3.2 km/h    1012.3 hpa     28.8º    0.0 mm
   26-05-2019    17:40      31.8º(+1.9)     29%      270 (W)      8.0 km/h    1012.4 hpa     28.8º    0.0 mm
   26-05-2019    17:35      32.1º(+2.6)     29%      247(SW)      8.0 km/h    1012.4 hpa     28.7º    0.0 mm
   26-05-2019    17:30      32.1º(+2.5)     28%      135(SE)      3.2 km/h    1012.4 hpa     28.7º    0.0 mm
   26-05-2019    17:25      32.1º(+1.9)     29%      202 (S)      1.6 km/h    1012.4 hpa     28.7º    0.0 mm
   26-05-2019    17:20      32.1º(+2.2)     29%      225(SW)      3.2 km/h    1012.5 hpa     28.7º    0.0 mm
   26-05-2019    17:15      31.8º(+1.9)     29%      225(SW)      3.2 km/h    1012.6 hpa     28.7º    0.0 mm
   26-05-2019    17:10      31.6º(+1.0)     29%      090 (E)      3.2 km/h    1012.8 hpa     28.7º    0.0 mm
   26-05-2019    17:05      31.3º(+0.7)     30%      270 (W)      4.8 km/h    1012.3 hpa     28.6º    0.0 mm
   26-05-2019    17:00      30.9º(+0.5)     29%      045(NE)      1.6 km/h    1012.8 hpa     28.6º    0.0 mm
   26-05-2019    16:55      31.1º(+0.6)     26%      090 (E)      4.8 km/h    1012.9 hpa     28.6º    0.0 mm
   26-05-2019    16:50      31.8º(+1.3)     26%      135(SE)      3.2 km/h    1013.0 hpa     28.6º    0.0 mm
   26-05-2019    16:45      32.3º(+1.7)     25%         -         0.0 km/h    1013.0 hpa     28.6º    0.0 mm
   26-05-2019    16:40      32.1º(+1.8)     26%         -         0.0 km/h    1013.2 hpa     28.6º    0.0 mm
   26-05-2019    16:35      31.8º(+1.9)     26%         -         0.0 km/h    1013.2 hpa     28.6º    0.0 mm
   26-05-2019    16:30      31.6º(+1.7)     26%         -         0.0 km/h    1013.3 hpa     28.6º    0.0 mm
   26-05-2019    16:25      31.2º(+1.3)     28%         -         0.0 km/h    1013.3 hpa     28.6º    0.0 mm
   26-05-2019    16:20      30.8º(+0.4)     28%      045(NE)      1.6 km/h    1013.3 hpa     28.6º    0.0 mm
   26-05-2019    16:15      30.5º(+0.1)     28%      090 (E)      4.8 km/h    1013.3 hpa     28.6º    0.0 mm
   26-05-2019    16:10      30.4º(+0.0)     29%      022 (N)      1.6 km/h    1013.4 hpa     28.6º    0.0 mm
   26-05-2019    16:05      29.9º(-0.4)     29%      022 (N)      1.6 km/h    1013.5 hpa     28.6º    0.0 mm
   26-05-2019    16:00      29.7º(-0.5)     29%      090 (E)      4.8 km/h    1013.6 hpa     28.6º    0.0 mm
   26-05-2019    15:55      30.1º(+0.2)     29%         -         0.0 km/h    1013.6 hpa     28.5º    0.0 mm
   26-05-2019    15:50      29.9º(+0.2)     30%      090 (E)      3.2 km/h    1013.8 hpa     28.5º    0.0 mm
   26-05-2019    15:45      30.1º(+0.5)     29%      090 (E)      3.2 km/h    1013.8 hpa     28.5º    0.0 mm
   26-05-2019    15:40      29.9º(+0.1)     29%      112 (E)      3.2 km/h    1013.8 hpa     28.5º    0.0 mm
   26-05-2019    15:35      29.7º(-0.1)     30%      112 (E)      1.6 km/h    1013.9 hpa     28.5º    0.0 mm
   26-05-2019    15:30      29.9º(+0.5)     29%      112 (E)      3.2 km/h    1013.9 hpa     28.5º    0.0 mm
   26-05-2019    15:25      30.0º(+0.7)     29%         -         0.0 km/h    1014.0 hpa     28.5º    0.0 mm
   26-05-2019    15:20      29.8º(+0.6)     29%      000 (N)      1.6 km/h    1014.1 hpa     28.5º    0.0 mm
   26-05-2019    15:15      29.6º(+1.0)     29%      000 (N)      3.2 km/h    1014.1 hpa     28.5º    0.0 mm
   26-05-2019    15:10      29.5º(+1.2)     30%      090 (E)      4.8 km/h    1014.3 hpa     28.5º    0.0 mm
   26-05-2019    15:05      29.9º(+1.4)     29%      090 (E)      1.6 km/h    1014.3 hpa     28.5º    0.0 mm
   26-05-2019    15:00      29.6º(+1.5)     29%      090 (E)      3.2 km/h    1014.4 hpa     28.5º    0.0 mm
   26-05-2019    14:55      29.8º(+2.0)     29%         -         0.0 km/h    1014.4 hpa     28.5º    0.0 mm
   26-05-2019    14:50      29.9º(+2.0)     28%         -         0.0 km/h    1014.6 hpa     28.5º    0.0 mm
   26-05-2019    14:45      29.8º(+1.7)     28%      000 (N)      1.6 km/h    1014.7 hpa     28.5º    0.0 mm
   26-05-2019    14:40      29.6º(+1.3)     29%      000 (N)      1.6 km/h    1014.8 hpa     28.5º    0.0 mm
   26-05-2019    14:35      29.3º(+1.4)     29%         -         0.0 km/h    1014.8 hpa     28.4º    0.0 mm
   26-05-2019    14:30      28.9º(+1.1)     33%         -         0.0 km/h    1014.7 hpa     28.4º    0.0 mm
   26-05-2019    14:25      28.6º(+1.0)     31%         -         0.0 km/h    1014.8 hpa     28.4º    0.0 mm
   26-05-2019    14:20      28.2º(+0.8)     33%         -         0.0 km/h    1014.8 hpa     28.4º    0.0 mm
   26-05-2019    14:15      28.2º(+1.0)     34%      112 (E)      3.2 km/h    1014.8 hpa     28.4º    0.0 mm
   26-05-2019    14:10      27.9º(+0.7)     35%         -         0.0 km/h    1015.0 hpa     28.4º    0.0 mm
   26-05-2019    14:05      27.9º(+1.0)     33%         -         0.0 km/h    1015.1 hpa     28.4º    0.0 mm
   26-05-2019    14:00      28.1º(+1.3)     34%         -         0.0 km/h    1015.2 hpa     28.4º    0.0 mm
   26-05-2019    13:55      28.3º(+1.9)     34%         -         0.0 km/h    1015.3 hpa     28.4º    0.0 mm
   26-05-2019    13:50      28.0º(+1.2)     35%         -         0.0 km/h    1015.3 hpa     28.4º    0.0 mm
   26-05-2019    13:45      27.7º(+0.9)     35%         -         0.0 km/h    1015.3 hpa     28.4º    0.0 mm
   26-05-2019    13:40      27.6º(+1.0)     36%         -         0.0 km/h    1015.5 hpa     28.4º    0.0 mm
   26-05-2019    13:35      27.4º(+0.9)     36%         -         0.0 km/h    1015.6 hpa     28.4º    0.0 mm
   26-05-2019    13:30      27.7º(+1.1)     35%         -         0.0 km/h    1015.6 hpa     28.4º    0.0 mm
   26-05-2019    13:25      27.9º(+1.3)     37%         -         0.0 km/h    1015.6 hpa     28.4º    0.0 mm
   26-05-2019    13:20      27.6º(+1.2)     38%         -         0.0 km/h    1015.6 hpa     28.4º    0.0 mm
   26-05-2019    13:15      27.2º(+0.9)     37%         -         0.0 km/h    1015.7 hpa     28.4º    0.0 mm
   26-05-2019    13:10      26.9º(+0.7)     37%      000 (N)      1.6 km/h    1015.8 hpa     28.4º    0.0 mm
   26-05-2019    13:05      26.7º(+0.9)     39%         -         0.0 km/h    1015.9 hpa     28.4º    0.0 mm
   26-05-2019    13:00      26.5º(+1.0)     40%         -         0.0 km/h    1015.9 hpa     28.4º    0.0 mm
   26-05-2019    12:55      26.4º(+0.5)     40%         -         0.0 km/h    1015.9 hpa     28.4º    0.0 mm
   26-05-2019    12:50      26.2º(+0.2)     40%         -         0.0 km/h    1016.0 hpa     28.4º    0.0 mm
   26-05-2019    12:45      25.7º(-0.0)     42%         -         0.0 km/h    1016.0 hpa     28.3º    0.0 mm
   26-05-2019    12:40      25.8º(+0.5)     41%         -         0.0 km/h    1016.1 hpa     28.3º    0.0 mm
   26-05-2019    12:35      25.7º(+0.6)     42%         -         0.0 km/h    1016.0 hpa     28.4º    0.0 mm
   26-05-2019    12:30      25.6º(+0.5)     41%         -         0.0 km/h    1016.0 hpa     28.4º    0.0 mm
   26-05-2019    12:25      25.8º(+1.0)     42%      112 (E)      3.2 km/h    1016.0 hpa     28.4º    0.0 mm
   26-05-2019    12:20      26.1º(+1.4)     41%         -         0.0 km/h    1016.2 hpa     28.4º    0.0 mm
   26-05-2019    12:15      25.8º(+1.1)     41%         -         0.0 km/h    1016.1 hpa     28.4º    0.0 mm
   26-05-2019    12:10      25.6º(+1.2)     44%         -         0.0 km/h    1016.2 hpa     28.4º    0.0 mm
   26-05-2019    12:05      25.4º(+1.6)     43%         -         0.0 km/h    1016.2 hpa     28.4º    0.0 mm
   26-05-2019    12:00      25.3º(+1.9)     44%         -         0.0 km/h    1016.2 hpa     28.4º    0.0 mm
   26-05-2019    11:55      25.1º(+1.8)     44%         -         0.0 km/h    1016.2 hpa     28.4º    0.0 mm
   26-05-2019    11:50      24.9º(+1.3)     46%         -         0.0 km/h    1016.2 hpa     28.4º    0.0 mm
   26-05-2019    11:45      25.1º(+1.8)     45%         -         0.0 km/h    1016.2 hpa     28.4º    0.0 mm
   26-05-2019    11:40      25.4º(+2.2)     46%         -         0.0 km/h    1016.2 hpa     28.4º    0.0 mm
   26-05-2019    11:35      25.6º(+2.2)     45%         -         0.0 km/h    1016.3 hpa     28.4º    0.0 mm
   26-05-2019    11:30      25.4º(+2.2)     46%         -         0.0 km/h    1016.4 hpa     28.4º    0.0 mm
   26-05-2019    11:25      24.8º(+1.5)     50%         -         0.0 km/h    1016.4 hpa     28.4º    0.0 mm
   26-05-2019    11:20      24.8º(+1.6)     51%         -         0.0 km/h    1016.4 hpa     28.4º    0.0 mm
   26-05-2019    11:15      24.9º(+1.9)     51%         -         0.0 km/h    1016.4 hpa     28.4º    0.0 mm
   26-05-2019    11:10      25.1º(+2.0)     50%         -         0.0 km/h    1016.4 hpa     28.4º    0.0 mm
   26-05-2019    11:05      25.2º(+2.4)     52%         -         0.0 km/h    1016.3 hpa     28.4º    0.0 mm
   26-05-2019    11:00      24.9º(+2.2)     53%         -         0.0 km/h    1016.5 hpa     28.4º    0.0 mm
   26-05-2019    10:55      24.7º(+2.1)     53%         -         0.0 km/h    1016.4 hpa     28.4º    0.0 mm
   26-05-2019    10:50      24.2º(+1.9)     55%         -         0.0 km/h    1016.3 hpa     28.4º    0.0 mm
   26-05-2019    10:45      23.8º(+1.6)     56%         -         0.0 km/h    1016.4 hpa     28.4º    0.0 mm
   26-05-2019    10:40      23.1º(+1.0)     58%         -         0.0 km/h    1016.5 hpa     28.4º    0.0 mm
   26-05-2019    10:35      22.6º(+0.8)     59%         -         0.0 km/h    1016.5 hpa     28.4º    0.0 mm
   26-05-2019    10:30      22.4º(+0.7)     60%         -         0.0 km/h    1016.4 hpa     28.4º    0.0 mm
   26-05-2019    10:25      22.4º(+0.8)     60%         -         0.0 km/h    1016.5 hpa     28.4º    0.0 mm
   26-05-2019    10:20      22.4º(+1.1)     61%         -         0.0 km/h    1016.4 hpa     28.4º    0.0 mm
   26-05-2019    10:15      22.2º(+1.0)     62%         -         0.0 km/h    1016.4 hpa     28.4º    0.0 mm
   26-05-2019    10:10      22.1º(+1.0)     63%         -         0.0 km/h    1016.4 hpa     28.4º    0.0 mm
   26-05-2019    10:05      22.1º(+1.1)     62%         -         0.0 km/h    1016.4 hpa     28.4º    0.0 mm
   26-05-2019    10:00      22.0º(+1.3)     64%         -         0.0 km/h    1016.4 hpa     28.4º    0.0 mm
   26-05-2019    09:55      21.5º(+0.9)     66%         -         0.0 km/h    1016.5 hpa     28.4º    0.0 mm
   26-05-2019    09:50      21.3º(+1.0)     66%         -         0.0 km/h    1016.4 hpa     28.4º    0.0 mm
   26-05-2019    09:45      21.1º(+1.0)     67%         -         0.0 km/h    1016.5 hpa     28.4º    0.0 mm
   26-05-2019    09:40      21.0º(+1.1)     67%         -         0.0 km/h    1016.5 hpa     28.4º    0.0 mm
   26-05-2019    09:35      20.9º(+1.1)     68%         -         0.0 km/h    1016.5 hpa     28.4º    0.0 mm
   26-05-2019    09:30      20.8º(+1.1)     69%         -         0.0 km/h    1016.5 hpa     28.4º    0.0 mm
   26-05-2019    09:25      20.6º(+1.2)     70%         -         0.0 km/h    1016.5 hpa     28.4º    0.0 mm
   26-05-2019    09:20      20.4º(+1.1)     70%         -         0.0 km/h    1016.5 hpa     28.4º    0.0 mm
   26-05-2019    09:15      20.4º(+1.3)     70%         -         0.0 km/h    1016.5 hpa     28.4º    0.0 mm
   26-05-2019    09:10      20.3º(+1.4)     71%         -         0.0 km/h    1016.5 hpa     28.3º    0.0 mm
   26-05-2019    09:05      20.0º(+1.3)     74%         -         0.0 km/h    1016.4 hpa     28.3º    0.0 mm
   26-05-2019    09:00      19.7º(+1.0)     76%         -         0.0 km/h    1016.3 hpa     28.3º    0.0 mm
   26-05-2019    08:55      19.4º(+0.7)     76%         -         0.0 km/h    1016.3 hpa     28.3º    0.0 mm
   26-05-2019    08:50      19.3º(+0.7)     77%         -         0.0 km/h    1016.3 hpa     28.3º    0.0 mm
   26-05-2019    08:45      19.2º(+0.6)     77%         -         0.0 km/h    1016.4 hpa     28.3º    0.0 mm
   26-05-2019    08:40      19.1º(+0.6)     77%         -         0.0 km/h    1016.3 hpa     28.3º    0.0 mm
   26-05-2019    08:35      18.9º(+0.6)     77%         -         0.0 km/h    1016.3 hpa     28.3º    0.0 mm
   26-05-2019    08:30      18.8º(+0.6)     78%         -         0.0 km/h    1016.2 hpa     28.3º    0.0 mm
   26-05-2019    08:25      18.6º(+0.5)     78%         -         0.0 km/h    1016.2 hpa     28.3º    0.0 mm
   26-05-2019    08:20      18.4º(+0.4)     79%         -         0.0 km/h    1016.1 hpa     28.3º    0.0 mm
   26-05-2019    08:15      18.3º(+0.4)     79%         -         0.0 km/h    1016.0 hpa     28.3º    0.0 mm
   26-05-2019    08:10      18.2º(+0.4)     79%         -         0.0 km/h    1016.0 hpa     28.3º    0.0 mm
   26-05-2019    08:05      18.1º(+0.3)     80%         -         0.0 km/h    1016.0 hpa     28.3º    0.0 mm
   26-05-2019    08:00      17.9º(+0.2)     79%         -         0.0 km/h    1016.0 hpa     28.3º    0.0 mm
   26-05-2019    07:55      17.9º(+0.2)     79%         -         0.0 km/h    1015.9 hpa     28.3º    0.0 mm
   26-05-2019    07:50      17.9º(+0.3)     79%         -         0.0 km/h    1015.9 hpa     28.3º    0.0 mm
   26-05-2019    07:45      17.9º(+0.4)     79%         -         0.0 km/h    1015.8 hpa     28.3º    0.0 mm
   26-05-2019    07:40      17.9º(+0.5)     79%         -         0.0 km/h    1015.9 hpa     28.3º    0.0 mm
   26-05-2019    07:35      17.9º(+0.5)     79%         -         0.0 km/h    1015.8 hpa     28.3º    0.0 mm
   26-05-2019    07:30      18.0º(+0.7)     79%         -         0.0 km/h    1015.8 hpa     28.3º    0.0 mm
   26-05-2019    07:25      18.0º(+0.7)     79%         -         0.0 km/h    1015.7 hpa     28.3º    0.0 mm
   26-05-2019    07:20      18.1º(+0.8)     79%         -         0.0 km/h    1015.6 hpa     28.3º    0.0 mm
   26-05-2019    07:15      18.1º(+0.9)     79%         -         0.0 km/h    1015.5 hpa     28.3º    0.0 mm
   26-05-2019    07:10      18.1º(+0.9)     79%         -         0.0 km/h    1015.5 hpa     28.3º    0.0 mm
   26-05-2019    07:05      18.0º(+0.8)     79%         -         0.0 km/h    1015.5 hpa     28.3º    0.0 mm
   26-05-2019    07:00      18.0º(+0.8)     79%         -         0.0 km/h    1015.5 hpa     28.3º    0.0 mm
   26-05-2019    06:55      17.9º(+0.7)     79%         -         0.0 km/h    1015.5 hpa     28.3º    0.0 mm
   26-05-2019    06:50      17.9º(+0.8)     79%         -         0.0 km/h    1015.5 hpa     28.3º    0.0 mm
   26-05-2019    06:45      17.9º(+0.8)     79%         -         0.0 km/h    1015.6 hpa     28.3º    0.0 mm
   26-05-2019    06:40      17.9º(+0.8)     79%         -         0.0 km/h    1015.6 hpa     28.3º    0.0 mm
   26-05-2019    06:35      17.9º(+0.8)     79%         -         0.0 km/h    1015.5 hpa     28.4º    0.0 mm
   26-05-2019    06:30      17.8º(+0.7)     80%         -         0.0 km/h    1015.5 hpa     28.4º    0.0 mm
   26-05-2019    06:25      17.8º(+0.7)     80%         -         0.0 km/h    1015.5 hpa     28.4º    0.0 mm
   26-05-2019    06:20      17.8º(+0.7)     80%         -         0.0 km/h    1015.5 hpa     28.4º    0.0 mm
   26-05-2019    06:15      17.7º(+0.7)     79%         -         0.0 km/h    1015.5 hpa     28.4º    0.0 mm
   26-05-2019    06:10      17.7º(+0.7)     79%         -         0.0 km/h    1015.4 hpa     28.4º    0.0 mm
   26-05-2019    06:05      17.7º(+0.6)     79%         -         0.0 km/h    1015.3 hpa     28.4º    0.0 mm
   26-05-2019    06:00      17.7º(+0.6)     79%         -         0.0 km/h    1015.4 hpa     28.4º    0.0 mm
   26-05-2019    05:55      17.8º(+0.6)     79%      270 (W)      1.6 km/h    1015.4 hpa     28.4º    0.0 mm
   26-05-2019    05:50      17.9º(+0.7)     79%      270 (W)      1.6 km/h    1015.4 hpa     28.4º    0.0 mm
   26-05-2019    05:45      18.0º(+0.7)     79%         -         0.0 km/h    1015.3 hpa     28.4º    0.0 mm
   26-05-2019    05:40      18.1º(+0.8)     78%         -         0.0 km/h    1015.4 hpa     28.4º    0.0 mm
   26-05-2019    05:35      18.2º(+0.9)     78%         -         0.0 km/h    1015.4 hpa     28.4º    0.0 mm
   26-05-2019    05:30      18.3º(+1.0)     78%      270 (W)      1.6 km/h    1015.3 hpa     28.4º    0.0 mm
   26-05-2019    05:25      18.3º(+1.0)     79%      270 (W)      1.6 km/h    1015.4 hpa     28.4º    0.0 mm
   26-05-2019    05:20      18.3º(+1.0)     78%         -         0.0 km/h    1015.4 hpa     28.4º    0.0 mm
   26-05-2019    05:15      18.4º(+1.1)     78%         -         0.0 km/h    1015.5 hpa     28.4º    0.0 mm
   26-05-2019    05:10      18.4º(+1.1)     78%         -         0.0 km/h    1015.5 hpa     28.4º    0.0 mm
   26-05-2019    05:05      18.4º(+1.1)     78%         -         0.0 km/h    1015.5 hpa     28.4º    0.0 mm
   26-05-2019    05:00      18.4º(+1.1)     78%         -         0.0 km/h    1015.4 hpa     28.4º    0.0 mm
   26-05-2019    04:55      18.4º(+1.1)     78%      270 (W)      3.2 km/h    1015.5 hpa     28.4º    0.0 mm
   26-05-2019    04:50      18.4º(+1.1)     78%      270 (W)      4.8 km/h    1015.6 hpa     28.4º    0.0 mm
   26-05-2019    04:45      18.4º(+1.1)     79%      270 (W)      3.2 km/h    1015.5 hpa     28.4º    0.0 mm
   26-05-2019    04:40      18.3º(+1.0)     79%      270 (W)      1.6 km/h    1015.6 hpa     28.4º    0.0 mm
   26-05-2019    04:35      18.3º(+1.0)     79%         -         0.0 km/h    1015.6 hpa     28.4º    0.0 mm
   26-05-2019    04:30      18.3º(+1.0)     79%      292 (W)      4.8 km/h    1015.6 hpa     28.4º    0.0 mm
   26-05-2019    04:25      18.2º(+0.9)     80%      292 (W)      4.8 km/h    1015.6 hpa     28.4º    0.0 mm
   26-05-2019    04:20      18.2º(+0.9)     80%      292 (W)      3.2 km/h    1015.6 hpa     28.4º    0.0 mm
   26-05-2019    04:15      18.2º(+1.0)     81%      292 (W)      3.2 km/h    1015.6 hpa     28.4º    0.0 mm
   26-05-2019    04:10      18.3º(+1.1)     81%         -         0.0 km/h    1015.7 hpa     28.4º    0.0 mm
   26-05-2019    04:05      18.3º(+1.1)     81%      292 (W)      1.6 km/h    1015.6 hpa     28.4º    0.0 mm
   26-05-2019    04:00      18.3º(+1.0)     81%      292 (W)      1.6 km/h    1015.6 hpa     28.4º    0.0 mm
   26-05-2019    03:55      18.3º(+0.9)     81%      292 (W)      4.8 km/h    1015.7 hpa     28.4º    0.0 mm
   26-05-2019    03:50      18.3º(+0.8)     81%      292 (W)      4.8 km/h    1015.6 hpa     28.4º    0.0 mm
   26-05-2019    03:45      18.4º(+0.8)     82%      270 (W)      1.6 km/h    1015.6 hpa     28.4º    0.0 mm
   26-05-2019    03:40      18.4º(+0.7)     82%      270 (W)      1.6 km/h    1015.7 hpa     28.4º    0.0 mm
   26-05-2019    03:35      18.4º(+0.6)     82%      270 (W)      3.2 km/h    1015.7 hpa     28.4º    0.0 mm
   26-05-2019    03:30      18.3º(+0.5)     83%      270 (W)      3.2 km/h    1015.7 hpa     28.4º    0.0 mm
   26-05-2019    03:25      18.3º(+0.4)     83%      270 (W)      4.8 km/h    1015.7 hpa     28.4º    0.0 mm
   26-05-2019    03:20      18.4º(+0.3)     83%      270 (W)      1.6 km/h    1015.7 hpa     28.4º    0.0 mm
   26-05-2019    03:15      18.4º(+0.2)     83%      270 (W)      3.2 km/h    1015.7 hpa     28.4º    0.0 mm
   26-05-2019    03:10      18.5º(+0.3)     83%      270 (W)      4.8 km/h    1015.7 hpa     28.4º    0.0 mm
   26-05-2019    03:05      18.6º(+0.3)     82%      270 (W)      3.2 km/h    1015.8 hpa     28.4º    0.0 mm
   26-05-2019    03:00      18.6º(+0.3)     82%      270 (W)      3.2 km/h    1015.7 hpa     28.4º    0.0 mm
   26-05-2019    02:55      18.6º(+0.3)     82%      270 (W)      4.8 km/h    1015.8 hpa     28.4º    0.0 mm
   26-05-2019    02:50      18.6º(+0.3)     82%      270 (W)      4.8 km/h    1015.8 hpa     28.4º    0.0 mm
   26-05-2019    02:45      18.7º(+0.4)     82%      270 (W)      1.6 km/h    1015.8 hpa     28.5º    0.0 mm
   26-05-2019    02:40      18.7º(+0.4)     82%         -         0.0 km/h    1015.8 hpa     28.5º    0.0 mm
   26-05-2019    02:35      18.7º(+0.4)     82%         -         0.0 km/h    1015.8 hpa     28.5º    0.0 mm
   26-05-2019    02:30      18.7º(+0.3)     82%         -         0.0 km/h    1015.8 hpa     28.5º    0.0 mm
   26-05-2019    02:25      18.8º(+0.4)     82%      270 (W)      1.6 km/h    1015.9 hpa     28.5º    0.0 mm
   26-05-2019    02:20      18.8º(+0.4)     82%      270 (W)      3.2 km/h    1015.8 hpa     28.5º    0.0 mm
   26-05-2019    02:15      18.8º(+0.3)     82%         -         0.0 km/h    1015.9 hpa     28.5º    0.0 mm
   26-05-2019    02:10      18.8º(+0.3)     82%         -         0.0 km/h    1015.9 hpa     28.5º    0.0 mm
   26-05-2019    02:05      18.8º(+0.2)     82%      270 (W)      3.2 km/h    1015.9 hpa     28.5º    0.0 mm
   26-05-2019    02:00      18.9º(+0.3)     82%      270 (W)      6.4 km/h    1015.8 hpa     28.5º    0.0 mm
   26-05-2019    01:55      18.9º(----)     82%      270 (W)      6.4 km/h    1015.8 hpa     28.5º    0.0 mm
   26-05-2019    01:50      18.9º(----)     82%      292 (W)      4.8 km/h    1015.8 hpa     28.5º    0.0 mm
   26-05-2019    01:45      18.9º(----)     82%      292 (W)      6.4 km/h    1015.8 hpa     28.5º    0.0 mm
   26-05-2019    01:40      18.9º(----)     82%      247(SW)      8.0 km/h    1015.8 hpa     28.5º    0.0 mm
   26-05-2019    01:35      18.9º(----)     81%      270 (W)      8.0 km/h    1015.8 hpa     28.5º    0.0 mm
   26-05-2019    01:30      19.1º(----)     81%      247(SW)      6.4 km/h    1015.8 hpa     28.5º    0.0 mm
   26-05-2019    01:25      19.1º(----)     81%      247(SW)      3.2 km/h    1015.9 hpa     28.5º    0.0 mm
   26-05-2019    01:20      19.1º(----)     81%      247(SW)      1.6 km/h    1015.9 hpa     28.5º    0.0 mm
   26-05-2019    01:15      19.1º(----)     81%      270 (W)      8.0 km/h    1016.0 hpa     28.5º    0.0 mm
   26-05-2019    01:10      19.1º(----)     81%      270 (W)      8.0 km/h    1015.9 hpa     28.4º    0.0 mm
   26-05-2019    01:05      19.2º(----)     82%      270 (W)      4.8 km/h    1015.9 hpa     28.4º    0.0 mm
   26-05-2019    01:00      19.2º(----)     82%      247(SW)      3.2 km/h    1015.9 hpa     28.4º    0.0 mm
   26-05-2019    00:55      19.2º(----)     82%      225(SW)      4.8 km/h    1016.0 hpa     28.5º    0.0 mm
   26-05-2019    00:50      19.2º(----)     82%      247(SW)      3.2 km/h    1016.0 hpa     28.4º    0.0 mm
   26-05-2019    00:45      19.2º(----)     82%      247(SW)      4.8 km/h    1015.9 hpa     28.4º    0.0 mm
   26-05-2019    00:40      19.3º(----)     82%      270 (W)      4.8 km/h    1016.0 hpa     28.4º    0.0 mm
   26-05-2019    00:35      19.3º(----)     82%      225(SW)      3.2 km/h    1016.1 hpa     28.4º    0.0 mm
   26-05-2019    00:30      19.3º(----)     82%      225(SW)      4.8 km/h    1016.1 hpa     28.4º    0.0 mm
   26-05-2019    00:25      19.3º(----)     81%      225(SW)      4.8 km/h    1016.1 hpa     28.4º    0.0 mm
   26-05-2019    00:20      19.4º(----)     81%      270 (W)      6.4 km/h    1016.0 hpa     28.4º    0.0 mm
   26-05-2019    00:15      19.4º(----)     81%      247(SW)      3.2 km/h    1015.9 hpa     28.4º    0.0 mm
   26-05-2019    00:10      19.6º(----)     80%      225(SW)      4.8 km/h    1016.0 hpa     28.4º    0.0 mm
   26-05-2019    00:05      19.6º(----)     80%      225(SW)      6.4 km/h    1016.0 hpa     28.4º    0.0 mm
   26-05-2019    00:00      19.8º(----)     79%      157(SE)      3.2 km/h    1015.9 hpa     28.5º    0.0 mm